sensor_id;sensor_type;location;lat;lon;timestamp;pressure;altitude;pressure_sealevel;temperature;humidity
52983;BME280;48698;45.736;13.926;2023-04-27T00:03:09;97487.47;;;8.32;100.00
52983;BME280;48698;45.736;13.926;2023-04-27T00:08:14;97573.00;;;8.91;100.00
52983;BME280;48698;45.736;13.926;2023-04-27T00:13:17;97631.88;;;9.35;100.00
52983;BME280;48698;45.736;13.926;2023-04-27T00:18:19;97655.72;;;9.35;100.00
52983;BME280;48698;45.736;13.926;2023-04-27T00:23:23;97603.34;;;9.03;100.00
52983;BME280;48698;45.736;13.926;2023-04-27T00:28:26;97474.16;;;8.33;100.00
52983;BME280;48698;45.736;13.926;2023-04-27T00:33:29;97614.41;;;9.31;100.00
52983;BME280;48698;45.736;13.926;2023-04-27T00:38:32;97306.09;;;7.28;100.00
52983;BME280;48698;45.736;13.926;2023-04-27T00:43:42;97659.66;;;9.26;100.00
52983;BME280;48698;45.736;13.926;2023-04-27T00:48:45;97546.94;;;9.01;100.00
52983;BME280;48698;45.736;13.926;2023-04-27T00:53:51;97492.03;;;8.28;100.00
52983;BME280;48698;45.736;13.926;2023-04-27T00:58:54;97522.78;;;8.69;100.00
52983;BME280;48698;45.736;13.926;2023-04-27T01:03:57;97630.66;;;9.61;100.00
52983;BME280;48698;45.736;13.926;2023-04-27T01:09:01;97588.09;;;9.81;100.00
52983;BME280;48698;45.736;13.926;2023-04-27T01:14:06;97643.25;;;10.29;100.00
52983;BME280;48698;45.736;13.926;2023-04-27T01:19:09;97647.38;;;10.34;100.00
52983;BME280;48698;45.736;13.926;2023-04-27T01:24:12;97548.06;;;9.68;100.00
52983;BME280;48698;45.736;13.926;2023-04-27T01:29:16;97482.28;;;8.86;100.00
52983;BME280;48698;45.736;13.926;2023-04-27T01:34:19;97439.13;;;8.28;100.00
52983;BME280;48698;45.736;13.926;2023-04-27T01:39:22;97573.81;;;8.92;100.00
52983;BME280;48698;45.736;13.926;2023-04-27T01:44:34;97489.38;;;8.67;100.00
52983;BME280;48698;45.736;13.926;2023-04-27T01:49:37;97321.53;;;7.37;100.00
52983;BME280;48698;45.736;13.926;2023-04-27T01:54:40;97384.56;;;7.66;100.00
52983;BME280;48698;45.736;13.926;2023-04-27T01:59:43;97549.59;;;8.62;100.00
52983;BME280;48698;45.736;13.926;2023-04-27T02:04:53;97651.72;;;8.88;100.00
52983;BME280;48698;45.736;13.926;2023-04-27T02:09:56;97691.69;;;9.41;100.00
52983;BME280;48698;45.736;13.926;2023-04-27T02:14:59;97496.31;;;7.90;100.00
52983;BME280;48698;45.736;13.926;2023-04-27T02:20:07;97661.13;;;8.74;100.00
52983;BME280;48698;45.736;13.926;2023-04-27T02:25:22;97500.09;;;7.85;100.00
52983;BME280;48698;45.736;13.926;2023-04-27T02:30:25;97597.97;;;8.65;100.00
52983;BME280;48698;45.736;13.926;2023-04-27T02:35:28;97370.16;;;7.92;100.00
52983;BME280;48698;45.736;13.926;2023-04-27T02:40:31;97515.06;;;8.83;100.00
52983;BME280;48698;45.736;13.926;2023-04-27T02:45:36;97288.34;;;7.70;100.00
52983;BME280;48698;45.736;13.926;2023-04-27T02:50:40;97503.41;;;8.88;100.00
52983;BME280;48698;45.736;13.926;2023-04-27T02:56:01;97627.69;;;9.85;100.00
52983;BME280;48698;45.736;13.926;2023-04-27T03:01:04;97632.56;;;9.76;100.00
52983;BME280;48698;45.736;13.926;2023-04-27T03:06:17;97534.34;;;9.24;100.00
52983;BME280;48698;45.736;13.926;2023-04-27T03:11:21;97481.78;;;8.97;100.00
52983;BME280;48698;45.736;13.926;2023-04-27T03:16:24;97646.44;;;10.00;100.00
52983;BME280;48698;45.736;13.926;2023-04-27T03:21:27;97629.16;;;9.74;100.00
52983;BME280;48698;45.736;13.926;2023-04-27T03:26:30;97338.97;;;8.00;100.00
52983;BME280;48698;45.736;13.926;2023-04-27T03:31:33;97656.66;;;9.90;100.00
52983;BME280;48698;45.736;13.926;2023-04-27T03:36:36;97507.28;;;8.80;100.00
52983;BME280;48698;45.736;13.926;2023-04-27T03:41:39;97468.97;;;8.50;100.00
52983;BME280;48698;45.736;13.926;2023-04-27T03:46:53;97683.25;;;9.70;100.00
52983;BME280;48698;45.736;13.926;2023-04-27T03:51:55;97707.25;;;9.85;100.00
52983;BME280;48698;45.736;13.926;2023-04-27T03:56:58;97681.31;;;9.73;100.00
52983;BME280;48698;45.736;13.926;2023-04-27T04:02:01;97716.28;;;9.81;100.00
52983;BME280;48698;45.736;13.926;2023-04-27T04:07:05;97715.56;;;9.78;100.00
52983;BME280;48698;45.736;13.926;2023-04-27T04:12:18;97527.31;;;8.28;100.00
52983;BME280;48698;45.736;13.926;2023-04-27T04:17:21;97719.66;;;9.48;100.00
52983;BME280;48698;45.736;13.926;2023-04-27T04:22:33;97736.72;;;9.61;100.00
52983;BME280;48698;45.736;13.926;2023-04-27T04:27:36;97673.84;;;9.25;100.00
52983;BME280;48698;45.736;13.926;2023-04-27T04:32:39;97579.81;;;8.58;100.00
52983;BME280;48698;45.736;13.926;2023-04-27T04:37:44;97653.97;;;9.15;100.00
52983;BME280;48698;45.736;13.926;2023-04-27T04:42:47;97647.28;;;9.27;100.00
52983;BME280;48698;45.736;13.926;2023-04-27T04:47:50;97637.63;;;9.06;100.00
52983;BME280;48698;45.736;13.926;2023-04-27T04:52:53;97615.97;;;9.16;100.00
52983;BME280;48698;45.736;13.926;2023-04-27T04:57:56;97723.25;;;10.03;100.00
52983;BME280;48698;45.736;13.926;2023-04-27T05:03:00;97719.59;;;10.24;100.00
52983;BME280;48698;45.736;13.926;2023-04-27T05:08:03;97618.69;;;9.71;100.00
52983;BME280;48698;45.736;13.926;2023-04-27T05:13:06;97638.91;;;9.73;100.00
52983;BME280;48698;45.736;13.926;2023-04-27T05:18:08;97641.78;;;9.50;100.00
52983;BME280;48698;45.736;13.926;2023-04-27T05:23:11;97697.56;;;9.84;100.00
52983;BME280;48698;45.736;13.926;2023-04-27T05:28:21;97587.63;;;9.37;100.00
52983;BME280;48698;45.736;13.926;2023-04-27T05:33:24;97678.44;;;9.78;100.00
52983;BME280;48698;45.736;13.926;2023-04-27T05:38:27;97733.22;;;10.16;100.00
52983;BME280;48698;45.736;13.926;2023-04-27T05:43:30;97725.03;;;10.02;100.00
52983;BME280;48698;45.736;13.926;2023-04-27T05:48:33;97749.56;;;10.26;100.00
52983;BME280;48698;45.736;13.926;2023-04-27T05:53:35;97640.75;;;9.71;100.00
52983;BME280;48698;45.736;13.926;2023-04-27T05:58:38;97686.59;;;9.92;100.00
52983;BME280;48698;45.736;13.926;2023-04-27T06:03:41;97571.41;;;9.06;100.00
52983;BME280;48698;45.736;13.926;2023-04-27T06:08:44;97735.66;;;10.21;100.00
52983;BME280;48698;45.736;13.926;2023-04-27T06:13:57;97467.63;;;8.60;100.00
52983;BME280;48698;45.736;13.926;2023-04-27T06:18:59;97715.13;;;10.24;100.00
52983;BME280;48698;45.736;13.926;2023-04-27T06:24:02;97713.97;;;10.11;100.00
52983;BME280;48698;45.736;13.926;2023-04-27T06:29:05;97532.63;;;9.05;100.00
52983;BME280;48698;45.736;13.926;2023-04-27T06:34:19;97469.06;;;9.05;100.00
52983;BME280;48698;45.736;13.926;2023-04-27T06:39:22;97438.28;;;8.83;100.00
52983;BME280;48698;45.736;13.926;2023-04-27T06:44:26;97726.88;;;10.73;100.00
52983;BME280;48698;45.736;13.926;2023-04-27T06:49:39;97629.44;;;10.22;100.00
52983;BME280;48698;45.736;13.926;2023-04-27T06:54:42;97615.75;;;10.81;100.00
52983;BME280;48698;45.736;13.926;2023-04-27T06:59:45;97417.38;;;10.01;100.00
52983;BME280;48698;45.736;13.926;2023-04-27T07:04:48;97775.28;;;12.44;100.00
52983;BME280;48698;45.736;13.926;2023-04-27T07:10:02;97787.41;;;12.18;100.00
52983;BME280;48698;45.736;13.926;2023-04-27T07:15:06;97618.94;;;11.21;100.00
52983;BME280;48698;45.736;13.926;2023-04-27T07:20:19;97727.88;;;11.88;100.00
52983;BME280;48698;45.736;13.926;2023-04-27T07:25:22;97789.53;;;12.74;100.00
52983;BME280;48698;45.736;13.926;2023-04-27T07:30:24;97776.47;;;12.85;100.00
52983;BME280;48698;45.736;13.926;2023-04-27T07:35:28;97487.16;;;11.17;100.00
52983;BME280;48698;45.736;13.926;2023-04-27T07:40:30;97815.09;;;13.24;100.00
52983;BME280;48698;45.736;13.926;2023-04-27T07:45:34;97489.38;;;11.40;100.00
52983;BME280;48698;45.736;13.926;2023-04-27T07:50:50;97787.84;;;13.19;100.00
52983;BME280;48698;45.736;13.926;2023-04-27T07:55:53;97508.47;;;11.78;100.00
52983;BME280;48698;45.736;13.926;2023-04-27T08:00:56;97594.31;;;12.27;100.00
52983;BME280;48698;45.736;13.926;2023-04-27T08:05:59;97468.69;;;12.20;100.00
52983;BME280;48698;45.736;13.926;2023-04-27T08:11:03;97794.78;;;14.50;100.00
52983;BME280;48698;45.736;13.926;2023-04-27T08:16:06;97514.03;;;12.77;100.00
52983;BME280;48698;45.736;13.926;2023-04-27T08:21:09;97782.19;;;14.52;100.00
52983;BME280;48698;45.736;13.926;2023-04-27T08:26:22;97800.41;;;14.86;100.00
52983;BME280;48698;45.736;13.926;2023-04-27T08:31:27;97520.31;;;13.86;100.00
52983;BME280;48698;45.736;13.926;2023-04-27T08:36:30;97781.59;;;15.54;100.00
52983;BME280;48698;45.736;13.926;2023-04-27T08:41:43;97814.50;;;15.94;100.00
52983;BME280;48698;45.736;13.926;2023-04-27T08:46:46;97684.00;;;15.33;100.00
52983;BME280;48698;45.736;13.926;2023-04-27T08:51:49;97701.66;;;15.98;100.00
52983;BME280;48698;45.736;13.926;2023-04-27T08:56:52;97586.97;;;15.80;100.00
52983;BME280;48698;45.736;13.926;2023-04-27T09:01:54;97762.88;;;16.77;100.00
52983;BME280;48698;45.736;13.926;2023-04-27T09:07:09;97769.66;;;17.18;100.00
52983;BME280;48698;45.736;13.926;2023-04-27T09:12:20;97501.84;;;15.36;99.34
52983;BME280;48698;45.736;13.926;2023-04-27T09:17:24;97769.47;;;16.73;98.37
52983;BME280;48698;45.736;13.926;2023-04-27T09:22:29;97736.50;;;16.35;99.86
52983;BME280;48698;45.736;13.926;2023-04-27T09:27:32;97790.88;;;16.24;97.60
52983;BME280;48698;45.736;13.926;2023-04-27T09:32:35;97479.44;;;14.25;96.43
52983;BME280;48698;45.736;13.926;2023-04-27T09:37:38;97731.75;;;15.26;99.44
52983;BME280;48698;45.736;13.926;2023-04-27T09:42:50;97694.41;;;14.85;94.89
52983;BME280;48698;45.736;13.926;2023-04-27T09:47:52;97662.09;;;15.28;93.61
52983;BME280;48698;45.736;13.926;2023-04-27T09:52:55;97791.59;;;16.39;97.50
52983;BME280;48698;45.736;13.926;2023-04-27T10:03:54;97810.16;;;16.42;94.26
52983;BME280;48698;45.736;13.926;2023-04-27T10:09:02;97809.41;;;16.40;92.39
52983;BME280;48698;45.736;13.926;2023-04-27T10:14:14;97816.09;;;16.83;88.22
52983;BME280;48698;45.736;13.926;2023-04-27T10:19:20;97803.66;;;17.06;86.70
52983;BME280;48698;45.736;13.926;2023-04-27T10:24:36;97809.06;;;17.17;84.85
52983;BME280;48698;45.736;13.926;2023-04-27T10:29:44;97800.06;;;16.58;84.78
52983;BME280;48698;45.736;13.926;2023-04-27T10:34:47;97788.63;;;17.03;92.68
52983;BME280;48698;45.736;13.926;2023-04-27T10:39:50;97567.56;;;15.15;89.33
52983;BME280;48698;45.736;13.926;2023-04-27T10:44:56;97793.00;;;16.57;89.16
52983;BME280;48698;45.736;13.926;2023-04-27T10:49:59;97795.47;;;17.31;89.58
52983;BME280;48698;45.736;13.926;2023-04-27T10:55:32;97757.25;;;17.28;84.37
52983;BME280;48698;45.736;13.926;2023-04-27T11:00:39;97750.09;;;16.44;84.31
52983;BME280;48698;45.736;13.926;2023-04-27T11:06:00;97804.09;;;16.76;89.76
52983;BME280;48698;45.736;13.926;2023-04-27T11:11:04;97689.25;;;16.34;91.97
52983;BME280;48698;45.736;13.926;2023-04-27T11:16:09;97785.44;;;17.57;96.93
52983;BME280;48698;45.736;13.926;2023-04-27T11:21:17;97641.34;;;17.34;84.54
52983;BME280;48698;45.736;13.926;2023-04-27T11:26:21;97794.63;;;17.66;88.07
52983;BME280;48698;45.736;13.926;2023-04-27T11:31:38;97785.28;;;18.04;82.37
52983;BME280;48698;45.736;13.926;2023-04-27T11:36:42;97599.06;;;16.80;87.61
52983;BME280;48698;45.736;13.926;2023-04-27T11:41:45;97468.50;;;16.24;88.78
52983;BME280;48698;45.736;13.926;2023-04-27T11:46:51;97742.16;;;17.84;81.55
52983;BME280;48698;45.736;13.926;2023-04-27T11:51:55;97783.19;;;17.97;84.23
52983;BME280;48698;45.736;13.926;2023-04-27T11:57:06;97510.41;;;15.77;85.35
52983;BME280;48698;45.736;13.926;2023-04-27T12:02:10;97755.63;;;18.28;86.83
52983;BME280;48698;45.736;13.926;2023-04-27T12:07:14;97683.84;;;18.51;82.63
52983;BME280;48698;45.736;13.926;2023-04-27T12:12:17;97760.59;;;18.66;82.70
52983;BME280;48698;45.736;13.926;2023-04-27T12:17:23;97493.97;;;16.29;83.01
52983;BME280;48698;45.736;13.926;2023-04-27T12:22:26;97649.72;;;17.97;79.60
52983;BME280;48698;45.736;13.926;2023-04-27T12:27:31;97741.31;;;17.94;79.66
52983;BME280;48698;45.736;13.926;2023-04-27T12:32:44;97616.34;;;17.22;77.99
52983;BME280;48698;45.736;13.926;2023-04-27T12:37:48;97700.41;;;17.34;73.69
52983;BME280;48698;45.736;13.926;2023-04-27T12:42:52;97627.94;;;17.34;77.51
52983;BME280;48698;45.736;13.926;2023-04-27T12:47:55;97606.72;;;17.97;71.36
52983;BME280;48698;45.736;13.926;2023-04-27T12:53:06;97736.41;;;18.55;69.12
52983;BME280;48698;45.736;13.926;2023-04-27T12:58:12;97741.59;;;19.22;69.24
52983;BME280;48698;45.736;13.926;2023-04-27T13:03:32;97647.47;;;18.25;64.20
52983;BME280;48698;45.736;13.926;2023-04-27T13:08:37;97742.91;;;19.27;71.98
52983;BME280;48698;45.736;13.926;2023-04-27T13:13:41;97742.00;;;18.74;66.31
52983;BME280;48698;45.736;13.926;2023-04-27T13:18:44;97604.78;;;17.88;66.91
52983;BME280;48698;45.736;13.926;2023-04-27T13:23:51;97689.47;;;18.48;64.99
52983;BME280;48698;45.736;13.926;2023-04-27T13:28:59;97728.53;;;18.85;66.47
52983;BME280;48698;45.736;13.926;2023-04-27T13:34:04;97662.81;;;18.56;64.97
52983;BME280;48698;45.736;13.926;2023-04-27T13:39:08;97743.22;;;18.70;64.16
52983;BME280;48698;45.736;13.926;2023-04-27T13:44:23;97737.81;;;18.81;63.69
52983;BME280;48698;45.736;13.926;2023-04-27T13:49:26;97747.75;;;18.70;64.53
52983;BME280;48698;45.736;13.926;2023-04-27T13:54:30;97700.72;;;18.53;64.54
52983;BME280;48698;45.736;13.926;2023-04-27T13:59:33;97440.34;;;16.75;66.00
52983;BME280;48698;45.736;13.926;2023-04-27T14:04:37;97747.44;;;18.07;65.65
52983;BME280;48698;45.736;13.926;2023-04-27T14:09:41;97751.53;;;18.67;68.16
52983;BME280;48698;45.736;13.926;2023-04-27T14:14:45;97740.28;;;18.73;66.46
52983;BME280;48698;45.736;13.926;2023-04-27T14:19:48;97595.50;;;17.26;64.68
52983;BME280;48698;45.736;13.926;2023-04-27T14:24:52;97412.72;;;16.51;67.11
52983;BME280;48698;45.736;13.926;2023-04-27T14:29:57;97464.50;;;16.86;64.64
52983;BME280;48698;45.736;13.926;2023-04-27T14:35:00;97760.75;;;18.09;64.63
52983;BME280;48698;45.736;13.926;2023-04-27T14:40:04;97499.13;;;16.43;62.81
52983;BME280;48698;45.736;13.926;2023-04-27T14:45:09;97705.50;;;17.61;64.20
52983;BME280;48698;45.736;13.926;2023-04-27T14:50:13;97748.53;;;17.83;64.20
52983;BME280;48698;45.736;13.926;2023-04-27T14:55:27;97751.78;;;17.40;65.42
52983;BME280;48698;45.736;13.926;2023-04-27T15:00:30;97666.78;;;16.95;66.99
52983;BME280;48698;45.736;13.926;2023-04-27T15:05:34;97732.72;;;17.21;66.24
52983;BME280;48698;45.736;13.926;2023-04-27T15:10:37;97737.75;;;17.37;70.77
52983;BME280;48698;45.736;13.926;2023-04-27T15:15:41;97761.63;;;17.52;69.37
52983;BME280;48698;45.736;13.926;2023-04-27T15:20:50;97663.06;;;17.20;71.34
52983;BME280;48698;45.736;13.926;2023-04-27T15:26:04;97505.03;;;16.01;68.64
52983;BME280;48698;45.736;13.926;2023-04-27T15:31:08;97764.97;;;17.56;68.47
52983;BME280;48698;45.736;13.926;2023-04-27T15:36:11;97630.59;;;17.12;66.09
52983;BME280;48698;45.736;13.926;2023-04-27T15:41:15;97727.63;;;18.08;65.55
52983;BME280;48698;45.736;13.926;2023-04-27T15:46:18;97661.81;;;17.70;69.86
52983;BME280;48698;45.736;13.926;2023-04-27T15:51:22;97709.81;;;17.63;66.45
52983;BME280;48698;45.736;13.926;2023-04-27T15:56:26;97745.56;;;17.29;65.46
52983;BME280;48698;45.736;13.926;2023-04-27T16:01:32;97692.09;;;16.91;67.91
52983;BME280;48698;45.736;13.926;2023-04-27T16:06:36;97504.38;;;15.86;69.02
52983;BME280;48698;45.736;13.926;2023-04-27T16:11:48;97620.44;;;17.04;65.85
52983;BME280;48698;45.736;13.926;2023-04-27T16:16:52;97668.78;;;17.15;66.13
52983;BME280;48698;45.736;13.926;2023-04-27T16:21:57;97714.78;;;17.22;63.94
52983;BME280;48698;45.736;13.926;2023-04-27T16:27:01;97718.25;;;17.00;64.82
52983;BME280;48698;45.736;13.926;2023-04-27T16:32:05;97705.25;;;17.07;65.09
52983;BME280;48698;45.736;13.926;2023-04-27T16:37:08;97654.31;;;16.83;66.47
52983;BME280;48698;45.736;13.926;2023-04-27T16:42:25;97777.88;;;17.27;64.59
52983;BME280;48698;45.736;13.926;2023-04-27T16:47:28;97757.97;;;16.95;63.59
52983;BME280;48698;45.736;13.926;2023-04-27T16:52:33;97716.84;;;16.60;63.06
52983;BME280;48698;45.736;13.926;2023-04-27T16:57:37;97639.81;;;16.62;64.39
52983;BME280;48698;45.736;13.926;2023-04-27T17:02:41;97728.19;;;18.79;60.85
52983;BME280;48698;45.736;13.926;2023-04-27T17:07:45;97753.13;;;18.47;58.51
52983;BME280;48698;45.736;13.926;2023-04-27T17:12:48;97523.34;;;17.77;58.42
52983;BME280;48698;45.736;13.926;2023-04-27T17:17:52;97633.78;;;18.71;58.23
52983;BME280;48698;45.736;13.926;2023-04-27T17:22:55;97654.91;;;18.32;56.54
52983;BME280;48698;45.736;13.926;2023-04-27T17:27:58;97427.53;;;16.11;56.76
52983;BME280;48698;45.736;13.926;2023-04-27T17:33:03;97437.53;;;16.20;58.96
52983;BME280;48698;45.736;13.926;2023-04-27T17:38:06;97716.28;;;17.37;57.47
52983;BME280;48698;45.736;13.926;2023-04-27T17:43:10;97779.25;;;16.62;59.03
52983;BME280;48698;45.736;13.926;2023-04-27T17:48:14;97701.88;;;15.95;64.58
52983;BME280;48698;45.736;13.926;2023-04-27T17:53:18;97772.91;;;16.14;70.54
52983;BME280;48698;45.736;13.926;2023-04-27T17:58:21;97712.44;;;15.09;76.07
52983;BME280;48698;45.736;13.926;2023-04-27T18:03:25;97784.69;;;14.13;100.00
52983;BME280;48698;45.736;13.926;2023-04-27T18:08:29;97734.97;;;13.11;100.00
52983;BME280;48698;45.736;13.926;2023-04-27T18:13:40;97774.94;;;12.66;100.00
52983;BME280;48698;45.736;13.926;2023-04-27T18:18:43;97763.78;;;12.28;100.00
52983;BME280;48698;45.736;13.926;2023-04-27T18:23:47;97772.03;;;12.23;100.00
52983;BME280;48698;45.736;13.926;2023-04-27T18:28:50;97806.91;;;12.34;100.00
52983;BME280;48698;45.736;13.926;2023-04-27T18:33:54;97784.06;;;11.32;100.00
52983;BME280;48698;45.736;13.926;2023-04-27T18:38:58;97725.25;;;10.52;100.00
52983;BME280;48698;45.736;13.926;2023-04-27T18:44:03;97840.00;;;10.95;100.00
52983;BME280;48698;45.736;13.926;2023-04-27T18:49:07;97732.78;;;10.78;100.00
52983;BME280;48698;45.736;13.926;2023-04-27T18:54:10;97772.63;;;10.78;100.00
52983;BME280;48698;45.736;13.926;2023-04-27T18:59:14;97619.25;;;9.77;100.00
52983;BME280;48698;45.736;13.926;2023-04-27T19:04:28;97760.34;;;10.23;100.00
52983;BME280;48698;45.736;13.926;2023-04-27T19:09:31;97815.00;;;9.29;100.00
52983;BME280;48698;45.736;13.926;2023-04-27T19:14:34;97879.72;;;9.03;100.00
52983;BME280;48698;45.736;13.926;2023-04-27T19:19:36;97714.50;;;8.44;100.00
52983;BME280;48698;45.736;13.926;2023-04-27T19:24:39;97811.03;;;8.99;100.00
52983;BME280;48698;45.736;13.926;2023-04-27T19:29:51;97626.84;;;7.66;100.00
52983;BME280;48698;45.736;13.926;2023-04-27T19:34:55;97901.97;;;9.41;100.00
52983;BME280;48698;45.736;13.926;2023-04-27T19:39:58;97903.19;;;8.91;100.00
52983;BME280;48698;45.736;13.926;2023-04-27T19:45:01;97861.25;;;9.42;100.00
52983;BME280;48698;45.736;13.926;2023-04-27T19:50:12;97766.13;;;8.54;100.00
52983;BME280;48698;45.736;13.926;2023-04-27T19:55:15;97506.84;;;5.89;100.00
52983;BME280;48698;45.736;13.926;2023-04-27T20:00:18;97766.88;;;7.44;100.00
52983;BME280;48698;45.736;13.926;2023-04-27T20:05:20;97590.66;;;6.53;100.00
52983;BME280;48698;45.736;13.926;2023-04-27T20:10:24;97876.06;;;7.69;100.00
52983;BME280;48698;45.736;13.926;2023-04-27T20:15:27;97798.03;;;7.59;100.00
52983;BME280;48698;45.736;13.926;2023-04-27T20:20:30;97536.00;;;6.09;100.00
52983;BME280;48698;45.736;13.926;2023-04-27T20:25:33;97837.41;;;7.67;100.00
52983;BME280;48698;45.736;13.926;2023-04-27T20:30:47;97831.72;;;7.77;100.00
52983;BME280;48698;45.736;13.926;2023-04-27T20:35:51;97912.47;;;8.11;100.00
52983;BME280;48698;45.736;13.926;2023-04-27T20:41:01;97806.25;;;7.27;100.00
52983;BME280;48698;45.736;13.926;2023-04-27T20:46:06;97765.50;;;6.85;100.00
52983;BME280;48698;45.736;13.926;2023-04-27T20:51:09;97842.41;;;7.00;100.00
52983;BME280;48698;45.736;13.926;2023-04-27T20:56:12;97642.00;;;5.64;100.00
52983;BME280;48698;45.736;13.926;2023-04-27T21:01:15;97822.81;;;6.27;100.00
52983;BME280;48698;45.736;13.926;2023-04-27T21:06:18;97966.22;;;6.82;100.00
52983;BME280;48698;45.736;13.926;2023-04-27T21:11:21;97586.25;;;4.95;100.00
52983;BME280;48698;45.736;13.926;2023-04-27T21:16:24;97688.56;;;5.36;100.00
52983;BME280;48698;45.736;13.926;2023-04-27T21:21:27;97878.88;;;6.34;100.00
52983;BME280;48698;45.736;13.926;2023-04-27T21:26:30;97692.06;;;5.37;100.00
52983;BME280;48698;45.736;13.926;2023-04-27T21:31:33;97677.50;;;5.81;100.00
52983;BME280;48698;45.736;13.926;2023-04-27T21:36:37;97772.34;;;6.11;100.00
52983;BME280;48698;45.736;13.926;2023-04-27T21:41:40;97869.38;;;6.28;100.00
52983;BME280;48698;45.736;13.926;2023-04-27T21:46:42;97947.69;;;7.11;100.00
52983;BME280;48698;45.736;13.926;2023-04-27T21:51:46;97589.09;;;4.26;100.00
52983;BME280;48698;45.736;13.926;2023-04-27T21:56:49;97922.84;;;6.04;100.00
52983;BME280;48698;45.736;13.926;2023-04-27T22:01:52;97606.50;;;4.62;100.00
52983;BME280;48698;45.736;13.926;2023-04-27T22:06:55;97882.56;;;6.28;100.00
52983;BME280;48698;45.736;13.926;2023-04-27T22:11:58;97837.34;;;6.40;100.00
52983;BME280;48698;45.736;13.926;2023-04-27T22:17:00;97961.06;;;6.79;100.00
52983;BME280;48698;45.736;13.926;2023-04-27T22:22:03;97918.28;;;6.67;100.00
52983;BME280;48698;45.736;13.926;2023-04-27T22:27:06;97832.47;;;5.68;100.00
52983;BME280;48698;45.736;13.926;2023-04-27T22:32:19;97935.03;;;6.37;100.00
52983;BME280;48698;45.736;13.926;2023-04-27T22:37:23;97976.34;;;6.67;100.00
52983;BME280;48698;45.736;13.926;2023-04-27T22:42:28;97906.56;;;6.48;100.00
52983;BME280;48698;45.736;13.926;2023-04-27T22:47:41;97909.81;;;5.99;100.00
52983;BME280;48698;45.736;13.926;2023-04-27T22:52:46;97976.66;;;5.97;100.00
52983;BME280;48698;45.736;13.926;2023-04-27T22:57:50;97926.13;;;5.47;100.00
52983;BME280;48698;45.736;13.926;2023-04-27T23:02:54;97977.69;;;5.91;100.00
52983;BME280;48698;45.736;13.926;2023-04-27T23:07:58;97974.97;;;5.60;100.00
52983;BME280;48698;45.736;13.926;2023-04-27T23:13:01;97834.13;;;5.09;100.00
52983;BME280;48698;45.736;13.926;2023-04-27T23:18:04;97762.81;;;4.53;100.00
52983;BME280;48698;45.736;13.926;2023-04-27T23:23:07;97778.69;;;4.49;100.00
52983;BME280;48698;45.736;13.926;2023-04-27T23:28:10;97947.94;;;5.20;100.00
52983;BME280;48698;45.736;13.926;2023-04-27T23:33:13;97834.16;;;4.38;100.00
52983;BME280;48698;45.736;13.926;2023-04-27T23:38:27;97783.31;;;4.39;100.00
52983;BME280;48698;45.736;13.926;2023-04-27T23:43:29;97705.28;;;4.06;100.00
52983;BME280;48698;45.736;13.926;2023-04-27T23:48:33;97926.63;;;5.63;100.00
52983;BME280;48698;45.736;13.926;2023-04-27T23:53:36;97918.56;;;5.01;100.00
52983;BME280;48698;45.736;13.926;2023-04-27T23:58:40;97613.78;;;3.88;100.00
